Missouri Valley, Iowa
Current Conditions -  °F | °C
As of 6:35 PM on Monday 24 Nov 2014 (Local Time) from KBTA Reporting Station
Clear Clear  
Wind Chill: 20°   Ceiling: Unl
Heat Index: 31°   Visibility: 10mi
Dew Point: 10°   Wind: 16mph
Humidity: 42%   Direction: 300°WNW
Pressure: 29.94"   Gusts: 29mph
Location:  41.56°N, 95.89°W
Report Text: KBTA 250035Z AUTO 30014G25KT 10SM CLR 00/M12 A2994 RMK AO2 T10051121
Loading
Personal Weather Stations






























Interactive Weather Map New forecast layout! Learn more

10-Day Weather Forecast

Advertisements
Track Severe Weather on mobile